Flight Track Log - Related Links

Times and Time Zones

All times are in EDT time to prevent confusion due to time zone crossing. See the N919VT flight status page for this flight to view local times or setup timezone preferences in your user account.

Time Position Orientation Groundspeed Altitude Reporting Facility
EDT Latitude Longitude Course Direction KTS MPH feet Rate Location/Type
Sun 08:32:02 AM 41.0425 -71.8953 243° Southwest 106 122 2,800  Level Boston Center
Sun 08:32:57 AM 41.0300 -71.9228 239° Southwest 97 112 2,900 52 Climbing Boston Center
Sun 08:33:57 AM 41.0178 -71.9586 246° West 101 116 2,900 77 Level Boston Center
Sun 08:35:32 AM 41.0000 -72.0000 240° Southwest 103 119 3,100 77 Climbing New York TRACON
Sun 08:36:00 AM 41.2459 -72.0786 242° Southwest  Level Estimated
Sun 08:36:32 AM 40.9833 -72.0500 246° West 103 119 3,100  Level New York TRACON
Sun 08:37:00 AM 41.2281 -72.1241 243° Southwest  Level FlightAware Approximate
Sun 08:37:32 AM 40.9667 -72.0833 236° Southwest 99 114 3,100  Level New York TRACON
Sun 08:38:32 AM 40.9667 -72.1167 270° West 106 122 3,100 -50 Level New York TRACON
Sun 08:39:32 AM 40.9500 -72.1500 237° Southwest 106 122 3,000 -50 Descending New York TRACON
Sun 08:40:32 AM 40.9333 -72.1833 237° Southwest 104 120 3,000 4,421 Level New York TRACON
Sun 08:41:26 AM 40.9167 -72.2167 237° Southwest 123 142 11,400 4,368 Climbing New York TRACON
Sun 08:42:26 AM 40.9167 -72.2500 270° West 105 121 11,300 -4,250 Descending New York TRACON
Sun 08:43:26 AM 40.9000 -72.2833 237° Southwest 106 122 2,900 -4,200 Descending New York TRACON
Sun 08:44:26 AM 40.8833 -72.3167 237° Southwest 108 124 2,900  Level New York TRACON
Sun 08:45:26 AM 40.8667 -72.3500 237° Southwest 103 119 2,900 50 Level New York TRACON
Sun 08:46:26 AM 40.8667 -72.3833 270° West 103 119 3,000 100 Climbing New York TRACON
Sun 08:47:26 AM 40.8500 -72.4167 237° Southwest 99 114 3,100 53 Climbing New York TRACON
Sun 08:48:20 AM 40.8500 -72.4500 270° West 98 113 3,100 53 Level New York TRACON
Sun 08:49:20 AM 40.8333 -72.4833 237° Southwest 97 112 3,200 50 Climbing New York TRACON
Sun 08:50:20 AM 40.8167 -72.5167 237° Southwest 100 115 3,200 -53 Level New York TRACON
Sun 08:51:14 AM 40.8167 -72.5500 270° West 102 117 3,100 -56 Descending New York TRACON
Sun 08:52:08 AM 40.8000 -72.5833 237° Southwest 103 119 3,100  Level New York TRACON
Sun 08:53:08 AM 40.8000 -72.6167 270° West 103 119 3,100  Level New York TRACON
Sun 08:54:08 AM 40.7833 -72.6500 237° Southwest 104 120 3,100  Level New York TRACON
Sun 08:55:02 AM 40.7833 -72.6833 270° West 100 115 3,100  Level New York TRACON
Sun 08:56:02 AM 40.7667 -72.7167 237° Southwest 102 117 3,100  Level New York TRACON
Sun 08:57:02 AM 40.7667 -72.7500 270° West 101 116 3,100  Level New York TRACON
Sun 08:58:02 AM 40.7500 -72.7833 237° Southwest 102 117 3,100 -50 Level New York TRACON
Sun 08:59:02 AM 40.7500 -72.8167 270° West 105 121 3,000 -50 Descending New York TRACON
Sun 09:00:02 AM 40.7333 -72.8500 237° Southwest 101 116 3,000  Level New York TRACON
Sun 09:00:56 AM 40.7333 -72.8833 270° West 101 116 3,000  Level New York TRACON
Sun 09:01:56 AM 40.7167 -72.9167 237° Southwest 101 116 3,000  Level New York TRACON
Sun 09:02:56 AM 40.7000 -72.9500 237° Southwest 101 116 3,000  Level New York TRACON
Sun 09:03:56 AM 40.6833 -72.9833 237° Southwest 99 114 3,000  Level New York TRACON
Sun 09:04:50 AM 40.6833 -73.0167 270° West 100 115 3,000  Level New York TRACON
Sun 09:05:50 AM 40.6833 -73.0500 270° West 100 115 3,000  Level New York TRACON
Sun 09:06:44 AM 40.6833 -73.0833 270° West 101 116 3,000 53 Level New York TRACON
Sun 09:07:44 AM 40.6833 -73.1167 270° West 102 117 3,100  Climbing New York TRACON
Sun 09:08:50 AM 40.6833 -73.1667 270° West 109 125 3,000 -100 Descending New York TRACON
Sun 09:09:44 AM 40.6667 -73.2000 237° Southwest 109 125 2,900 -421 Descending New York TRACON
Sun 09:10:44 AM 40.6667 -73.2333 270° West 114 131 2,200 -750 Descending New York TRACON
Sun 09:11:44 AM 40.6667 -73.2833 270° West 116 133 1,400 -800 Descending New York TRACON

Login

Don't have an account? Register now (free) for customized features, flight alerts, and more!